sensor_id;sensor_type;location;lat;lon;timestamp;temperature;humidity
21092;DHT22;10704;42.678;23.288;2023-08-24T00:01:11;22.90;99.90
21092;DHT22;10704;42.678;23.288;2023-08-24T00:03:45;22.80;99.90
21092;DHT22;10704;42.678;23.288;2023-08-24T00:06:14;22.70;99.90
21092;DHT22;10704;42.678;23.288;2023-08-24T00:08:40;22.70;99.90
21092;DHT22;10704;42.678;23.288;2023-08-24T00:11:07;22.70;99.90
21092;DHT22;10704;42.678;23.288;2023-08-24T00:13:33;22.70;99.90
21092;DHT22;10704;42.678;23.288;2023-08-24T00:15:59;22.70;99.90
21092;DHT22;10704;42.678;23.288;2023-08-24T00:18:25;22.70;99.90
21092;DHT22;10704;42.678;23.288;2023-08-24T00:20:51;22.70;99.90
21092;DHT22;10704;42.678;23.288;2023-08-24T00:23:17;22.60;99.90
21092;DHT22;10704;42.678;23.288;2023-08-24T00:25:43;22.60;99.90
21092;DHT22;10704;42.678;23.288;2023-08-24T00:28:10;22.60;99.90
21092;DHT22;10704;42.678;23.288;2023-08-24T00:30:37;22.50;99.90
21092;DHT22;10704;42.678;23.288;2023-08-24T00:33:03;22.60;99.90
21092;DHT22;10704;42.678;23.288;2023-08-24T00:35:31;22.60;99.90
21092;DHT22;10704;42.678;23.288;2023-08-24T00:37:57;22.50;99.90
21092;DHT22;10704;42.678;23.288;2023-08-24T00:40:23;22.40;99.90
21092;DHT22;10704;42.678;23.288;2023-08-24T00:42:50;22.40;99.90
21092;DHT22;10704;42.678;23.288;2023-08-24T00:45:17;22.30;99.90
21092;DHT22;10704;42.678;23.288;2023-08-24T00:47:45;22.40;99.90
21092;DHT22;10704;42.678;23.288;2023-08-24T00:50:13;22.40;99.90
21092;DHT22;10704;42.678;23.288;2023-08-24T00:52:41;22.40;99.90
21092;DHT22;10704;42.678;23.288;2023-08-24T00:55:07;22.30;99.90
21092;DHT22;10704;42.678;23.288;2023-08-24T00:57:35;22.20;99.90
21092;DHT22;10704;42.678;23.288;2023-08-24T01:00:04;22.10;99.90
21092;DHT22;10704;42.678;23.288;2023-08-24T01:02:32;22.00;99.90
21092;DHT22;10704;42.678;23.288;2023-08-24T01:05:01;22.00;99.90
21092;DHT22;10704;42.678;23.288;2023-08-24T01:07:28;22.00;99.90
21092;DHT22;10704;42.678;23.288;2023-08-24T01:09:54;21.90;99.90
21092;DHT22;10704;42.678;23.288;2023-08-24T01:12:36;22.00;99.90
21092;DHT22;10704;42.678;23.288;2023-08-24T01:15:09;22.00;99.90
21092;DHT22;10704;42.678;23.288;2023-08-24T01:17:39;22.10;99.90
21092;DHT22;10704;42.678;23.288;2023-08-24T01:20:07;22.00;99.90
21092;DHT22;10704;42.678;23.288;2023-08-24T01:25:59;21.90;99.90
21092;DHT22;10704;42.678;23.288;2023-08-24T01:28:26;21.90;99.90
21092;DHT22;10704;42.678;23.288;2023-08-24T01:30:52;21.80;99.90
21092;DHT22;10704;42.678;23.288;2023-08-24T01:33:18;21.80;99.90
21092;DHT22;10704;42.678;23.288;2023-08-24T01:35:44;21.70;99.90
21092;DHT22;10704;42.678;23.288;2023-08-24T01:38:10;21.80;99.90
21092;DHT22;10704;42.678;23.288;2023-08-24T01:43:18;21.80;99.90
21092;DHT22;10704;42.678;23.288;2023-08-24T01:45:46;21.80;99.90
21092;DHT22;10704;42.678;23.288;2023-08-24T01:48:13;21.90;99.90
21092;DHT22;10704;42.678;23.288;2023-08-24T01:50:40;21.80;99.90
21092;DHT22;10704;42.678;23.288;2023-08-24T01:53:07;21.90;99.90
21092;DHT22;10704;42.678;23.288;2023-08-24T01:55:33;21.90;99.90
21092;DHT22;10704;42.678;23.288;2023-08-24T01:58:00;21.90;99.90
21092;DHT22;10704;42.678;23.288;2023-08-24T02:00:26;21.90;99.90
21092;DHT22;10704;42.678;23.288;2023-08-24T02:02:52;21.90;99.90
21092;DHT22;10704;42.678;23.288;2023-08-24T02:05:18;21.80;99.90
21092;DHT22;10704;42.678;23.288;2023-08-24T02:07:50;21.70;99.90
21092;DHT22;10704;42.678;23.288;2023-08-24T02:10:15;21.70;99.90
21092;DHT22;10704;42.678;23.288;2023-08-24T02:12:41;21.70;99.90
21092;DHT22;10704;42.678;23.288;2023-08-24T02:15:08;21.60;99.90
21092;DHT22;10704;42.678;23.288;2023-08-24T02:17:36;21.50;99.90
21092;DHT22;10704;42.678;23.288;2023-08-24T02:20:02;21.50;99.90
21092;DHT22;10704;42.678;23.288;2023-08-24T02:22:29;21.40;99.90
21092;DHT22;10704;42.678;23.288;2023-08-24T02:24:56;21.40;99.90
21092;DHT22;10704;42.678;23.288;2023-08-24T02:27:22;21.40;99.90
21092;DHT22;10704;42.678;23.288;2023-08-24T02:29:50;21.40;99.90
21092;DHT22;10704;42.678;23.288;2023-08-24T02:32:16;21.30;99.90
21092;DHT22;10704;42.678;23.288;2023-08-24T02:34:42;21.30;99.90
21092;DHT22;10704;42.678;23.288;2023-08-24T02:37:08;21.10;99.90
21092;DHT22;10704;42.678;23.288;2023-08-24T02:39:34;21.00;99.90
21092;DHT22;10704;42.678;23.288;2023-08-24T02:42:01;21.00;99.90
21092;DHT22;10704;42.678;23.288;2023-08-24T02:44:27;21.00;99.90
21092;DHT22;10704;42.678;23.288;2023-08-24T02:46:54;20.90;99.90
21092;DHT22;10704;42.678;23.288;2023-08-24T02:49:20;20.80;99.90
21092;DHT22;10704;42.678;23.288;2023-08-24T02:51:46;20.80;99.90
21092;DHT22;10704;42.678;23.288;2023-08-24T02:54:12;20.80;99.90
21092;DHT22;10704;42.678;23.288;2023-08-24T02:56:38;20.90;99.90
21092;DHT22;10704;42.678;23.288;2023-08-24T02:59:04;21.00;99.90
21092;DHT22;10704;42.678;23.288;2023-08-24T03:01:30;21.00;99.90
21092;DHT22;10704;42.678;23.288;2023-08-24T03:03:56;21.00;99.90
21092;DHT22;10704;42.678;23.288;2023-08-24T03:06:23;20.90;99.90
21092;DHT22;10704;42.678;23.288;2023-08-24T03:08:50;21.00;99.90
21092;DHT22;10704;42.678;23.288;2023-08-24T03:11:16;21.10;99.90
21092;DHT22;10704;42.678;23.288;2023-08-24T03:13:42;21.10;99.90
21092;DHT22;10704;42.678;23.288;2023-08-24T03:16:09;21.10;99.90
21092;DHT22;10704;42.678;23.288;2023-08-24T03:18:36;21.10;99.90
21092;DHT22;10704;42.678;23.288;2023-08-24T03:21:03;21.00;99.90
21092;DHT22;10704;42.678;23.288;2023-08-24T03:23:32;21.00;99.90
21092;DHT22;10704;42.678;23.288;2023-08-24T03:25:58;21.00;99.90
21092;DHT22;10704;42.678;23.288;2023-08-24T03:28:24;21.00;99.90
21092;DHT22;10704;42.678;23.288;2023-08-24T03:30:52;21.00;99.90
21092;DHT22;10704;42.678;23.288;2023-08-24T03:33:20;20.90;99.90
21092;DHT22;10704;42.678;23.288;2023-08-24T03:35:46;20.90;99.90
21092;DHT22;10704;42.678;23.288;2023-08-24T03:38:12;20.70;99.90
21092;DHT22;10704;42.678;23.288;2023-08-24T03:40:38;20.50;99.90
21092;DHT22;10704;42.678;23.288;2023-08-24T03:43:04;20.50;99.90
21092;DHT22;10704;42.678;23.288;2023-08-24T03:45:31;20.40;99.90
21092;DHT22;10704;42.678;23.288;2023-08-24T03:47:57;20.50;99.90
21092;DHT22;10704;42.678;23.288;2023-08-24T03:50:23;20.50;99.90
21092;DHT22;10704;42.678;23.288;2023-08-24T03:52:50;20.50;99.90
21092;DHT22;10704;42.678;23.288;2023-08-24T03:55:16;20.40;99.90
21092;DHT22;10704;42.678;23.288;2023-08-24T03:57:43;20.50;99.90
21092;DHT22;10704;42.678;23.288;2023-08-24T04:00:09;20.50;99.90
21092;DHT22;10704;42.678;23.288;2023-08-24T04:02:41;20.50;99.90
21092;DHT22;10704;42.678;23.288;2023-08-24T04:05:08;20.60;99.90
21092;DHT22;10704;42.678;23.288;2023-08-24T04:07:34;20.60;99.90
21092;DHT22;10704;42.678;23.288;2023-08-24T04:10:03;20.60;99.90
21092;DHT22;10704;42.678;23.288;2023-08-24T04:12:31;20.60;99.90
21092;DHT22;10704;42.678;23.288;2023-08-24T04:14:57;20.60;99.90
21092;DHT22;10704;42.678;23.288;2023-08-24T04:17:24;20.60;99.90
21092;DHT22;10704;42.678;23.288;2023-08-24T04:19:50;20.70;99.90
21092;DHT22;10704;42.678;23.288;2023-08-24T04:22:16;20.70;99.90
21092;DHT22;10704;42.678;23.288;2023-08-24T04:24:42;20.50;99.90
21092;DHT22;10704;42.678;23.288;2023-08-24T04:27:07;20.60;99.90
21092;DHT22;10704;42.678;23.288;2023-08-24T04:29:33;20.70;99.90
21092;DHT22;10704;42.678;23.288;2023-08-24T04:31:59;20.80;99.90
21092;DHT22;10704;42.678;23.288;2023-08-24T04:34:25;20.90;99.90
21092;DHT22;10704;42.678;23.288;2023-08-24T04:36:52;20.90;99.90
21092;DHT22;10704;42.678;23.288;2023-08-24T04:39:18;21.00;99.90
21092;DHT22;10704;42.678;23.288;2023-08-24T04:41:46;21.00;99.90
21092;DHT22;10704;42.678;23.288;2023-08-24T04:44:12;21.10;99.90
21092;DHT22;10704;42.678;23.288;2023-08-24T04:46:38;21.10;99.90
21092;DHT22;10704;42.678;23.288;2023-08-24T04:49:04;21.10;99.90
21092;DHT22;10704;42.678;23.288;2023-08-24T04:51:30;21.10;99.90
21092;DHT22;10704;42.678;23.288;2023-08-24T04:53:57;21.10;99.90
21092;DHT22;10704;42.678;23.288;2023-08-24T04:56:22;20.80;99.90
21092;DHT22;10704;42.678;23.288;2023-08-24T04:58:53;20.70;99.90
21092;DHT22;10704;42.678;23.288;2023-08-24T05:01:20;20.70;99.90
21092;DHT22;10704;42.678;23.288;2023-08-24T05:03:46;20.80;99.90
21092;DHT22;10704;42.678;23.288;2023-08-24T05:06:11;20.90;99.90
21092;DHT22;10704;42.678;23.288;2023-08-24T05:08:37;20.90;99.90
21092;DHT22;10704;42.678;23.288;2023-08-24T05:11:13;21.00;99.90
21092;DHT22;10704;42.678;23.288;2023-08-24T05:13:43;21.10;99.90
21092;DHT22;10704;42.678;23.288;2023-08-24T05:16:12;21.20;99.90
21092;DHT22;10704;42.678;23.288;2023-08-24T05:18:40;21.40;99.90
21092;DHT22;10704;42.678;23.288;2023-08-24T05:21:06;21.50;99.90
21092;DHT22;10704;42.678;23.288;2023-08-24T05:23:33;21.70;99.90
21092;DHT22;10704;42.678;23.288;2023-08-24T05:26:00;21.80;99.90
21092;DHT22;10704;42.678;23.288;2023-08-24T05:28:28;22.00;99.90
21092;DHT22;10704;42.678;23.288;2023-08-24T05:30:54;22.10;99.90
21092;DHT22;10704;42.678;23.288;2023-08-24T05:33:21;22.10;99.90
21092;DHT22;10704;42.678;23.288;2023-08-24T05:35:48;22.30;99.90
21092;DHT22;10704;42.678;23.288;2023-08-24T05:38:14;22.20;99.90
21092;DHT22;10704;42.678;23.288;2023-08-24T05:40:42;22.30;99.90
21092;DHT22;10704;42.678;23.288;2023-08-24T05:43:09;22.30;99.90
21092;DHT22;10704;42.678;23.288;2023-08-24T05:45:36;22.40;99.90
21092;DHT22;10704;42.678;23.288;2023-08-24T05:48:02;22.40;99.90
21092;DHT22;10704;42.678;23.288;2023-08-24T05:50:28;22.40;99.90
21092;DHT22;10704;42.678;23.288;2023-08-24T05:52:53;22.40;99.90
21092;DHT22;10704;42.678;23.288;2023-08-24T05:55:19;22.40;99.90
21092;DHT22;10704;42.678;23.288;2023-08-24T05:57:46;22.40;99.90
21092;DHT22;10704;42.678;23.288;2023-08-24T06:00:12;22.50;99.90
21092;DHT22;10704;42.678;23.288;2023-08-24T06:02:39;22.70;99.90
21092;DHT22;10704;42.678;23.288;2023-08-24T06:05:06;22.70;99.90
21092;DHT22;10704;42.678;23.288;2023-08-24T06:07:33;22.70;99.90
21092;DHT22;10704;42.678;23.288;2023-08-24T06:09:59;22.90;99.90
21092;DHT22;10704;42.678;23.288;2023-08-24T06:12:25;22.90;99.90
21092;DHT22;10704;42.678;23.288;2023-08-24T06:14:51;22.90;99.90
21092;DHT22;10704;42.678;23.288;2023-08-24T06:17:17;23.20;99.90
21092;DHT22;10704;42.678;23.288;2023-08-24T06:19:43;23.30;99.90
21092;DHT22;10704;42.678;23.288;2023-08-24T06:22:09;23.50;99.90
21092;DHT22;10704;42.678;23.288;2023-08-24T06:24:35;23.90;99.90
21092;DHT22;10704;42.678;23.288;2023-08-24T06:27:01;24.00;99.90
21092;DHT22;10704;42.678;23.288;2023-08-24T06:29:28;23.90;99.90
21092;DHT22;10704;42.678;23.288;2023-08-24T06:31:55;23.90;99.90
21092;DHT22;10704;42.678;23.288;2023-08-24T06:34:21;24.10;99.90
21092;DHT22;10704;42.678;23.288;2023-08-24T06:36:47;24.30;99.90
21092;DHT22;10704;42.678;23.288;2023-08-24T06:39:13;24.40;99.90
21092;DHT22;10704;42.678;23.288;2023-08-24T06:41:39;24.70;99.90
21092;DHT22;10704;42.678;23.288;2023-08-24T06:44:08;24.90;99.90
21092;DHT22;10704;42.678;23.288;2023-08-24T06:46:34;25.00;99.90
21092;DHT22;10704;42.678;23.288;2023-08-24T06:49:00;25.20;99.90
21092;DHT22;10704;42.678;23.288;2023-08-24T06:51:27;25.50;99.90
21092;DHT22;10704;42.678;23.288;2023-08-24T06:53:53;25.80;99.90
21092;DHT22;10704;42.678;23.288;2023-08-24T06:56:19;26.00;99.90
21092;DHT22;10704;42.678;23.288;2023-08-24T06:58:47;26.30;99.90
21092;DHT22;10704;42.678;23.288;2023-08-24T07:01:13;26.40;99.90
21092;DHT22;10704;42.678;23.288;2023-08-24T07:03:39;26.30;99.90
21092;DHT22;10704;42.678;23.288;2023-08-24T07:06:08;26.40;99.90
21092;DHT22;10704;42.678;23.288;2023-08-24T07:08:34;26.30;99.90
21092;DHT22;10704;42.678;23.288;2023-08-24T07:11:03;26.40;99.90
21092;DHT22;10704;42.678;23.288;2023-08-24T07:13:29;26.40;99.90
21092;DHT22;10704;42.678;23.288;2023-08-24T07:15:55;26.60;99.90
21092;DHT22;10704;42.678;23.288;2023-08-24T07:18:21;26.50;99.90
21092;DHT22;10704;42.678;23.288;2023-08-24T07:20:47;26.50;99.90
21092;DHT22;10704;42.678;23.288;2023-08-24T07:23:13;26.50;99.90
21092;DHT22;10704;42.678;23.288;2023-08-24T07:25:39;26.50;99.90
21092;DHT22;10704;42.678;23.288;2023-08-24T07:28:05;26.60;99.90
21092;DHT22;10704;42.678;23.288;2023-08-24T07:30:32;26.70;99.90
21092;DHT22;10704;42.678;23.288;2023-08-24T07:32:58;26.80;99.90
21092;DHT22;10704;42.678;23.288;2023-08-24T07:35:24;26.90;99.90
21092;DHT22;10704;42.678;23.288;2023-08-24T07:37:52;26.80;99.90
21092;DHT22;10704;42.678;23.288;2023-08-24T07:40:18;27.10;99.90
21092;DHT22;10704;42.678;23.288;2023-08-24T07:42:47;27.50;99.90
21092;DHT22;10704;42.678;23.288;2023-08-24T07:45:13;27.90;99.90
21092;DHT22;10704;42.678;23.288;2023-08-24T07:47:40;28.50;99.90
21092;DHT22;10704;42.678;23.288;2023-08-24T07:50:07;29.00;99.90
21092;DHT22;10704;42.678;23.288;2023-08-24T07:52:33;29.20;99.90
21092;DHT22;10704;42.678;23.288;2023-08-24T07:54:59;29.60;99.90
21092;DHT22;10704;42.678;23.288;2023-08-24T07:57:29;29.90;98.60
21092;DHT22;10704;42.678;23.288;2023-08-24T07:59:54;30.00;97.00
21092;DHT22;10704;42.678;23.288;2023-08-24T08:02:20;30.20;96.30
21092;DHT22;10704;42.678;23.288;2023-08-24T08:04:46;30.60;95.50
21092;DHT22;10704;42.678;23.288;2023-08-24T08:07:12;30.90;94.20
21092;DHT22;10704;42.678;23.288;2023-08-24T08:09:38;31.10;93.00
21092;DHT22;10704;42.678;23.288;2023-08-24T08:12:04;31.20;91.90
21092;DHT22;10704;42.678;23.288;2023-08-24T08:14:30;31.40;91.60
21092;DHT22;10704;42.678;23.288;2023-08-24T08:16:56;30.90;91.40
21092;DHT22;10704;42.678;23.288;2023-08-24T08:19:22;30.90;91.90
21092;DHT22;10704;42.678;23.288;2023-08-24T08:21:51;31.30;90.60
21092;DHT22;10704;42.678;23.288;2023-08-24T08:24:17;31.50;89.30
21092;DHT22;10704;42.678;23.288;2023-08-24T08:26:42;31.60;88.90
21092;DHT22;10704;42.678;23.288;2023-08-24T08:29:08;32.30;85.70
21092;DHT22;10704;42.678;23.288;2023-08-24T08:31:34;32.70;84.60
21092;DHT22;10704;42.678;23.288;2023-08-24T08:34:01;32.30;83.50
21092;DHT22;10704;42.678;23.288;2023-08-24T08:36:30;32.10;82.40
21092;DHT22;10704;42.678;23.288;2023-08-24T08:38:58;32.60;82.50
21092;DHT22;10704;42.678;23.288;2023-08-24T08:41:27;33.10;81.10
21092;DHT22;10704;42.678;23.288;2023-08-24T08:43:56;32.90;80.20
21092;DHT22;10704;42.678;23.288;2023-08-24T08:46:22;32.80;80.10
21092;DHT22;10704;42.678;23.288;2023-08-24T08:48:49;32.40;80.50
21092;DHT22;10704;42.678;23.288;2023-08-24T08:51:17;32.80;79.70
21092;DHT22;10704;42.678;23.288;2023-08-24T08:53:43;33.10;79.10
21092;DHT22;10704;42.678;23.288;2023-08-24T08:56:09;33.70;77.20
21092;DHT22;10704;42.678;23.288;2023-08-24T08:58:36;34.40;77.70
21092;DHT22;10704;42.678;23.288;2023-08-24T09:01:03;34.90;75.20
21092;DHT22;10704;42.678;23.288;2023-08-24T09:03:31;34.90;74.30
21092;DHT22;10704;42.678;23.288;2023-08-24T09:05:57;35.00;73.40
21092;DHT22;10704;42.678;23.288;2023-08-24T09:08:25;35.20;73.00
21092;DHT22;10704;42.678;23.288;2023-08-24T09:10:51;35.80;71.80
21092;DHT22;10704;42.678;23.288;2023-08-24T09:13:17;36.50;70.30
21092;DHT22;10704;42.678;23.288;2023-08-24T09:15:43;36.90;68.50
21092;DHT22;10704;42.678;23.288;2023-08-24T09:18:09;36.90;67.40
21092;DHT22;10704;42.678;23.288;2023-08-24T09:20:35;37.00;66.50
21092;DHT22;10704;42.678;23.288;2023-08-24T09:23:01;36.40;67.50
21092;DHT22;10704;42.678;23.288;2023-08-24T09:25:27;36.70;66.40
21092;DHT22;10704;42.678;23.288;2023-08-24T09:28:01;36.10;66.80
21092;DHT22;10704;42.678;23.288;2023-08-24T09:30:35;35.30;68.30
21092;DHT22;10704;42.678;23.288;2023-08-24T09:33:10;36.00;67.70
21092;DHT22;10704;42.678;23.288;2023-08-24T09:35:37;37.00;65.60
21092;DHT22;10704;42.678;23.288;2023-08-24T09:38:18;37.20;64.60
21092;DHT22;10704;42.678;23.288;2023-08-24T09:40:46;37.90;63.30
21092;DHT22;10704;42.678;23.288;2023-08-24T09:43:16;38.70;62.30
21092;DHT22;10704;42.678;23.288;2023-08-24T09:45:55;39.10;60.40
21092;DHT22;10704;42.678;23.288;2023-08-24T09:48:23;39.50;59.50
21092;DHT22;10704;42.678;23.288;2023-08-24T09:50:51;39.30;58.70
21092;DHT22;10704;42.678;23.288;2023-08-24T09:53:23;39.50;58.30
21092;DHT22;10704;42.678;23.288;2023-08-24T09:58:19;39.60;57.40
21092;DHT22;10704;42.678;23.288;2023-08-24T10:03:32;39.70;56.50
21092;DHT22;10704;42.678;23.288;2023-08-24T10:05:59;38.70;57.20
21092;DHT22;10704;42.678;23.288;2023-08-24T10:08:31;38.30;58.40
21092;DHT22;10704;42.678;23.288;2023-08-24T10:10:59;39.40;57.20
21092;DHT22;10704;42.678;23.288;2023-08-24T10:13:44;40.30;55.30
21092;DHT22;10704;42.678;23.288;2023-08-24T10:16:12;40.30;54.80
21092;DHT22;10704;42.678;23.288;2023-08-24T10:18:40;40.60;53.80
21092;DHT22;10704;42.678;23.288;2023-08-24T10:21:07;40.60;53.30
21092;DHT22;10704;42.678;23.288;2023-08-24T10:23:34;41.20;53.20
21092;DHT22;10704;42.678;23.288;2023-08-24T10:26:06;41.40;51.80
21092;DHT22;10704;42.678;23.288;2023-08-24T10:28:33;40.80;52.00
21092;DHT22;10704;42.678;23.288;2023-08-24T10:31:00;41.10;52.00
21092;DHT22;10704;42.678;23.288;2023-08-24T10:33:27;40.40;52.40
21092;DHT22;10704;42.678;23.288;2023-08-24T10:35:53;40.80;52.00
21092;DHT22;10704;42.678;23.288;2023-08-24T10:38:26;41.20;51.30
21092;DHT22;10704;42.678;23.288;2023-08-24T10:40:54;40.60;51.10
21092;DHT22;10704;42.678;23.288;2023-08-24T10:43:23;40.30;51.50
21092;DHT22;10704;42.678;23.288;2023-08-24T10:45:57;39.40;52.50
21092;DHT22;10704;42.678;23.288;2023-08-24T10:48:56;38.90;53.20
21092;DHT22;10704;42.678;23.288;2023-08-24T10:51:18;38.20;53.40
21092;DHT22;10704;42.678;23.288;2023-08-24T10:53:47;37.50;54.00
21092;DHT22;10704;42.678;23.288;2023-08-24T10:56:15;36.70;55.00
21092;DHT22;10704;42.678;23.288;2023-08-24T10:58:44;36.00;56.10
21092;DHT22;10704;42.678;23.288;2023-08-24T11:01:17;35.60;57.20
21092;DHT22;10704;42.678;23.288;2023-08-24T11:03:54;34.40;61.40
21092;DHT22;10704;42.678;23.288;2023-08-24T11:06:27;33.50;65.20
21092;DHT22;10704;42.678;23.288;2023-08-24T11:09:08;33.00;66.90
21092;DHT22;10704;42.678;23.288;2023-08-24T11:11:41;32.60;68.20
21092;DHT22;10704;42.678;23.288;2023-08-24T11:14:17;32.70;68.80
21092;DHT22;10704;42.678;23.288;2023-08-24T11:16:53;32.70;66.50
21092;DHT22;10704;42.678;23.288;2023-08-24T11:19:21;32.60;64.00
21092;DHT22;10704;42.678;23.288;2023-08-24T11:21:47;33.00;63.50
21092;DHT22;10704;42.678;23.288;2023-08-24T11:24:13;33.20;63.20
21092;DHT22;10704;42.678;23.288;2023-08-24T11:26:46;33.50;62.80
21092;DHT22;10704;42.678;23.288;2023-08-24T11:29:12;33.50;62.80
21092;DHT22;10704;42.678;23.288;2023-08-24T11:31:38;33.40;62.90
21092;DHT22;10704;42.678;23.288;2023-08-24T11:34:05;33.30;63.00
21092;DHT22;10704;42.678;23.288;2023-08-24T11:36:42;33.00;62.90
21092;DHT22;10704;42.678;23.288;2023-08-24T11:39:17;32.60;63.20
21092;DHT22;10704;42.678;23.288;2023-08-24T11:41:57;32.20;63.80
21092;DHT22;10704;42.678;23.288;2023-08-24T11:44:24;31.80;64.50
21092;DHT22;10704;42.678;23.288;2023-08-24T11:46:50;31.60;65.20
21092;DHT22;10704;42.678;23.288;2023-08-24T11:49:16;31.50;66.20
21092;DHT22;10704;42.678;23.288;2023-08-24T11:51:42;31.40;66.70
21092;DHT22;10704;42.678;23.288;2023-08-24T11:54:08;31.50;66.70
21092;DHT22;10704;42.678;23.288;2023-08-24T11:56:42;31.40;66.70
21092;DHT22;10704;42.678;23.288;2023-08-24T11:59:12;31.20;67.30
21092;DHT22;10704;42.678;23.288;2023-08-24T12:01:40;30.90;67.60
21092;DHT22;10704;42.678;23.288;2023-08-24T12:04:06;30.70;68.00
21092;DHT22;10704;42.678;23.288;2023-08-24T12:06:32;30.80;68.10
21092;DHT22;10704;42.678;23.288;2023-08-24T12:08:58;30.90;67.80
21092;DHT22;10704;42.678;23.288;2023-08-24T12:11:24;30.80;68.40
21092;DHT22;10704;42.678;23.288;2023-08-24T12:13:54;30.70;68.90
21092;DHT22;10704;42.678;23.288;2023-08-24T12:16:21;30.50;69.30
21092;DHT22;10704;42.678;23.288;2023-08-24T12:18:50;30.60;70.00
21092;DHT22;10704;42.678;23.288;2023-08-24T12:21:16;30.50;70.10
21092;DHT22;10704;42.678;23.288;2023-08-24T12:23:42;30.50;70.30
21092;DHT22;10704;42.678;23.288;2023-08-24T12:26:08;30.60;70.70
21092;DHT22;10704;42.678;23.288;2023-08-24T12:28:34;30.60;70.90
21092;DHT22;10704;42.678;23.288;2023-08-24T12:31:01;30.50;70.40
21092;DHT22;10704;42.678;23.288;2023-08-24T12:33:30;30.50;70.40
21092;DHT22;10704;42.678;23.288;2023-08-24T12:35:59;30.40;70.10
21092;DHT22;10704;42.678;23.288;2023-08-24T12:38:26;30.40;70.60
21092;DHT22;10704;42.678;23.288;2023-08-24T12:40:53;30.50;68.50
21092;DHT22;10704;42.678;23.288;2023-08-24T12:43:19;30.50;69.00
21092;DHT22;10704;42.678;23.288;2023-08-24T12:45:45;30.50;69.00
21092;DHT22;10704;42.678;23.288;2023-08-24T12:48:11;30.40;69.10
21092;DHT22;10704;42.678;23.288;2023-08-24T12:50:38;30.20;69.30
21092;DHT22;10704;42.678;23.288;2023-08-24T12:53:04;30.50;69.60
21092;DHT22;10704;42.678;23.288;2023-08-24T12:55:32;30.80;69.30
21092;DHT22;10704;42.678;23.288;2023-08-24T12:57:59;31.00;69.70
21092;DHT22;10704;42.678;23.288;2023-08-24T13:00:25;31.30;68.60
21092;DHT22;10704;42.678;23.288;2023-08-24T13:02:53;31.40;68.00
21092;DHT22;10704;42.678;23.288;2023-08-24T13:05:19;31.60;67.10
21092;DHT22;10704;42.678;23.288;2023-08-24T13:07:46;31.80;67.30
21092;DHT22;10704;42.678;23.288;2023-08-24T13:10:11;31.90;66.60
21092;DHT22;10704;42.678;23.288;2023-08-24T13:12:38;32.00;66.70
21092;DHT22;10704;42.678;23.288;2023-08-24T13:15:04;31.80;70.90
21092;DHT22;10704;42.678;23.288;2023-08-24T13:17:30;31.80;72.40
21092;DHT22;10704;42.678;23.288;2023-08-24T13:19:56;31.60;74.10
21092;DHT22;10704;42.678;23.288;2023-08-24T13:22:23;31.40;75.20
21092;DHT22;10704;42.678;23.288;2023-08-24T13:24:49;31.20;75.80
21092;DHT22;10704;42.678;23.288;2023-08-24T13:27:15;31.00;75.80
21092;DHT22;10704;42.678;23.288;2023-08-24T13:29:41;30.80;75.60
21092;DHT22;10704;42.678;23.288;2023-08-24T13:32:07;30.90;75.70
21092;DHT22;10704;42.678;23.288;2023-08-24T13:34:34;30.90;74.00
21092;DHT22;10704;42.678;23.288;2023-08-24T13:37:00;30.90;73.90
21092;DHT22;10704;42.678;23.288;2023-08-24T13:39:26;30.80;74.70
21092;DHT22;10704;42.678;23.288;2023-08-24T13:41:58;30.70;75.10
21092;DHT22;10704;42.678;23.288;2023-08-24T13:44:24;30.80;75.30
21092;DHT22;10704;42.678;23.288;2023-08-24T13:46:51;30.80;75.10
21092;DHT22;10704;42.678;23.288;2023-08-24T13:49:20;30.90;75.00
21092;DHT22;10704;42.678;23.288;2023-08-24T13:51:46;30.90;75.50
21092;DHT22;10704;42.678;23.288;2023-08-24T13:54:16;31.00;75.60
21092;DHT22;10704;42.678;23.288;2023-08-24T13:56:46;30.90;75.60
21092;DHT22;10704;42.678;23.288;2023-08-24T13:59:13;30.80;76.40
21092;DHT22;10704;42.678;23.288;2023-08-24T14:01:39;30.70;76.30
21092;DHT22;10704;42.678;23.288;2023-08-24T14:04:05;30.60;76.80
21092;DHT22;10704;42.678;23.288;2023-08-24T14:06:32;30.60;77.40
21092;DHT22;10704;42.678;23.288;2023-08-24T14:09:05;30.50;77.40
21092;DHT22;10704;42.678;23.288;2023-08-24T14:11:31;30.50;77.90
21092;DHT22;10704;42.678;23.288;2023-08-24T14:13:58;30.40;77.10
21092;DHT22;10704;42.678;23.288;2023-08-24T14:16:25;30.30;78.40
21092;DHT22;10704;42.678;23.288;2023-08-24T14:18:51;30.20;78.20
21092;DHT22;10704;42.678;23.288;2023-08-24T14:21:18;30.10;78.10
21092;DHT22;10704;42.678;23.288;2023-08-24T14:23:47;30.10;78.20
21092;DHT22;10704;42.678;23.288;2023-08-24T14:26:12;30.00;78.40
21092;DHT22;10704;42.678;23.288;2023-08-24T14:28:56;29.80;78.70
21092;DHT22;10704;42.678;23.288;2023-08-24T14:31:26;29.90;78.40
21092;DHT22;10704;42.678;23.288;2023-08-24T14:33:52;30.10;77.40
21092;DHT22;10704;42.678;23.288;2023-08-24T14:36:19;30.00;77.10
21092;DHT22;10704;42.678;23.288;2023-08-24T14:38:46;29.80;78.00
21092;DHT22;10704;42.678;23.288;2023-08-24T14:41:13;29.50;80.60
21092;DHT22;10704;42.678;23.288;2023-08-24T14:43:40;29.20;81.50
21092;DHT22;10704;42.678;23.288;2023-08-24T14:46:06;29.20;81.90
21092;DHT22;10704;42.678;23.288;2023-08-24T14:48:33;29.20;81.90
21092;DHT22;10704;42.678;23.288;2023-08-24T14:50:59;29.30;82.50
21092;DHT22;10704;42.678;23.288;2023-08-24T14:53:26;29.10;83.00
21092;DHT22;10704;42.678;23.288;2023-08-24T14:55:53;29.00;83.50
21092;DHT22;10704;42.678;23.288;2023-08-24T14:58:24;29.10;84.00
21092;DHT22;10704;42.678;23.288;2023-08-24T15:00:51;29.30;83.40
21092;DHT22;10704;42.678;23.288;2023-08-24T15:03:17;29.50;82.60
21092;DHT22;10704;42.678;23.288;2023-08-24T15:05:45;29.70;81.70
21092;DHT22;10704;42.678;23.288;2023-08-24T15:08:12;30.00;80.90
21092;DHT22;10704;42.678;23.288;2023-08-24T15:10:39;30.10;79.10
21092;DHT22;10704;42.678;23.288;2023-08-24T15:13:05;30.10;80.10
21092;DHT22;10704;42.678;23.288;2023-08-24T15:15:34;30.30;80.00
21092;DHT22;10704;42.678;23.288;2023-08-24T15:18:00;30.30;80.10
21092;DHT22;10704;42.678;23.288;2023-08-24T15:20:26;30.30;79.80
21092;DHT22;10704;42.678;23.288;2023-08-24T15:22:52;30.30;80.40
21092;DHT22;10704;42.678;23.288;2023-08-24T15:25:18;30.40;80.60
21092;DHT22;10704;42.678;23.288;2023-08-24T15:27:43;30.50;81.10